sensor_id;sensor_type;location;lat;lon;timestamp;pressure;altitude;pressure_sealevel;temperature;humidity
27304;BME280;14791;52.392;13.092;2023-03-21T00:00:04;101261.78;;;15.27;42.80
27304;BME280;14791;52.392;13.092;2023-03-21T00:02:33;101253.22;;;15.27;42.83
27304;BME280;14791;52.392;13.092;2023-03-21T00:05:02;101250.42;;;15.29;42.83
27304;BME280;14791;52.392;13.092;2023-03-21T00:07:30;101253.50;;;15.30;42.80
27304;BME280;14791;52.392;13.092;2023-03-21T00:09:59;101252.88;;;15.32;42.80
27304;BME280;14791;52.392;13.092;2023-03-21T00:12:28;101252.78;;;15.34;42.76
27304;BME280;14791;52.392;13.092;2023-03-21T00:14:59;101255.97;;;15.33;42.74
27304;BME280;14791;52.392;13.092;2023-03-21T00:17:30;101248.48;;;15.31;42.77
27304;BME280;14791;52.392;13.092;2023-03-21T00:20:00;101243.10;;;15.31;42.75
27304;BME280;14791;52.392;13.092;2023-03-21T00:22:33;101242.25;;;15.30;42.75
27304;BME280;14791;52.392;13.092;2023-03-21T00:25:01;101251.28;;;15.29;42.75
27304;BME280;14791;52.392;13.092;2023-03-21T00:27:30;101247.73;;;15.29;42.80
27304;BME280;14791;52.392;13.092;2023-03-21T00:30:00;101246.39;;;15.29;42.78
27304;BME280;14791;52.392;13.092;2023-03-21T00:32:29;101239.76;;;15.27;42.79
27304;BME280;14791;52.392;13.092;2023-03-21T00:35:00;101240.64;;;15.28;42.83
27304;BME280;14791;52.392;13.092;2023-03-21T00:37:29;101232.67;;;15.26;42.86
27304;BME280;14791;52.392;13.092;2023-03-21T00:39:58;101235.47;;;15.25;42.87
27304;BME280;14791;52.392;13.092;2023-03-21T00:42:27;101237.05;;;15.22;42.84
27304;BME280;14791;52.392;13.092;2023-03-21T00:44:57;101240.72;;;15.21;42.85
27304;BME280;14791;52.392;13.092;2023-03-21T00:47:26;101241.91;;;15.17;42.88
27304;BME280;14791;52.392;13.092;2023-03-21T00:49:56;101242.73;;;15.12;42.97
27304;BME280;14791;52.392;13.092;2023-03-21T00:52:25;101232.20;;;15.08;43.08
27304;BME280;14791;52.392;13.092;2023-03-21T00:54:54;101235.59;;;15.05;43.19
27304;BME280;14791;52.392;13.092;2023-03-21T00:57:25;101238.61;;;15.00;43.29
27304;BME280;14791;52.392;13.092;2023-03-21T00:59:53;101239.43;;;14.95;43.42
27304;BME280;14791;52.392;13.092;2023-03-21T01:02:26;101243.89;;;14.89;43.56
27304;BME280;14791;52.392;13.092;2023-03-21T01:04:56;101235.16;;;14.80;43.78
27304;BME280;14791;52.392;13.092;2023-03-21T01:07:26;101238.11;;;14.70;43.87
27304;BME280;14791;52.392;13.092;2023-03-21T01:09:55;101237.55;;;14.59;44.14
27304;BME280;14791;52.392;13.092;2023-03-21T01:12:26;101236.05;;;14.47;44.43
27304;BME280;14791;52.392;13.092;2023-03-21T01:14:56;101238.25;;;14.35;44.70
27304;BME280;14791;52.392;13.092;2023-03-21T01:17:24;101234.00;;;14.25;44.82
27304;BME280;14791;52.392;13.092;2023-03-21T01:19:53;101240.86;;;14.17;44.93
27304;BME280;14791;52.392;13.092;2023-03-21T01:22:22;101228.45;;;14.09;45.09
27304;BME280;14791;52.392;13.092;2023-03-21T01:24:51;101225.32;;;14.02;45.20
27304;BME280;14791;52.392;13.092;2023-03-21T01:27:20;101227.46;;;13.97;45.34
27304;BME280;14791;52.392;13.092;2023-03-21T01:29:49;101226.34;;;13.94;45.33
27304;BME280;14791;52.392;13.092;2023-03-21T01:32:18;101227.50;;;13.90;45.53
27304;BME280;14791;52.392;13.092;2023-03-21T01:34:47;101221.10;;;13.85;45.65
27304;BME280;14791;52.392;13.092;2023-03-21T01:37:16;101221.31;;;13.82;45.82
27304;BME280;14791;52.392;13.092;2023-03-21T01:39:48;101221.05;;;13.79;45.94
27304;BME280;14791;52.392;13.092;2023-03-21T01:42:17;101218.09;;;13.77;46.08
27304;BME280;14791;52.392;13.092;2023-03-21T01:45:03;101223.55;;;13.75;46.16
27304;BME280;14791;52.392;13.092;2023-03-21T01:47:35;101220.95;;;13.74;46.21
27304;BME280;14791;52.392;13.092;2023-03-21T01:50:06;101223.95;;;13.69;46.37
27304;BME280;14791;52.392;13.092;2023-03-21T01:52:39;101225.41;;;13.68;46.43
27304;BME280;14791;52.392;13.092;2023-03-21T01:55:17;101222.73;;;13.68;46.43
27304;BME280;14791;52.392;13.092;2023-03-21T01:57:56;101221.48;;;13.66;46.52
27304;BME280;14791;52.392;13.092;2023-03-21T02:00:26;101219.77;;;13.65;46.57
27304;BME280;14791;52.392;13.092;2023-03-21T02:03:00;101218.03;;;13.64;46.61
27304;BME280;14791;52.392;13.092;2023-03-21T02:05:57;101221.48;;;13.66;46.69
27304;BME280;14791;52.392;13.092;2023-03-21T02:08:22;101221.88;;;13.67;46.71
27304;BME280;14791;52.392;13.092;2023-03-21T02:10:52;101222.45;;;13.65;46.80
27304;BME280;14791;52.392;13.092;2023-03-21T02:13:32;101223.09;;;13.69;46.82
27304;BME280;14791;52.392;13.092;2023-03-21T02:16:11;101220.41;;;13.69;46.91
27304;BME280;14791;52.392;13.092;2023-03-21T02:18:48;101214.36;;;13.72;46.92
27304;BME280;14791;52.392;13.092;2023-03-21T02:27:06;101202.56;;;13.75;46.96
27304;BME280;14791;52.392;13.092;2023-03-21T02:32:36;101202.92;;;13.76;47.02
27304;BME280;14791;52.392;13.092;2023-03-21T02:37:58;101201.48;;;13.77;47.04
27304;BME280;14791;52.392;13.092;2023-03-21T02:40:49;101197.95;;;13.77;46.99
27304;BME280;14791;52.392;13.092;2023-03-21T02:45:51;101197.46;;;13.77;47.14
27304;BME280;14791;52.392;13.092;2023-03-21T02:48:35;101200.36;;;13.74;47.18
27304;BME280;14791;52.392;13.092;2023-03-21T02:51:07;101202.83;;;13.77;47.17
27304;BME280;14791;52.392;13.092;2023-03-21T02:53:39;101204.39;;;13.74;47.22
27304;BME280;14791;52.392;13.092;2023-03-21T02:56:10;101201.09;;;13.76;47.24
27304;BME280;14791;52.392;13.092;2023-03-21T02:58:42;101203.77;;;13.76;47.28
27304;BME280;14791;52.392;13.092;2023-03-21T03:01:12;101201.85;;;13.78;47.34
27304;BME280;14791;52.392;13.092;2023-03-21T03:03:45;101205.30;;;13.80;47.32
27304;BME280;14791;52.392;13.092;2023-03-21T03:06:19;101202.61;;;13.80;47.36
27304;BME280;14791;52.392;13.092;2023-03-21T03:09:06;101200.69;;;13.82;47.44
27304;BME280;14791;52.392;13.092;2023-03-21T03:11:35;101202.39;;;13.83;47.38
27304;BME280;14791;52.392;13.092;2023-03-21T03:14:37;101203.37;;;13.82;47.47
27304;BME280;14791;52.392;13.092;2023-03-21T03:17:20;101203.37;;;13.82;47.51
27304;BME280;14791;52.392;13.092;2023-03-21T03:22:46;101198.68;;;13.79;47.65
27304;BME280;14791;52.392;13.092;2023-03-21T03:25:18;101201.36;;;13.79;47.62
27304;BME280;14791;52.392;13.092;2023-03-21T03:27:48;101204.35;;;13.81;47.65
27304;BME280;14791;52.392;13.092;2023-03-21T03:30:19;101198.37;;;13.83;47.64
27304;BME280;14791;52.392;13.092;2023-03-21T03:32:52;101202.66;;;13.86;47.66
27304;BME280;14791;52.392;13.092;2023-03-21T03:35:21;101204.67;;;13.90;47.66
27304;BME280;14791;52.392;13.092;2023-03-21T03:37:55;101210.69;;;13.93;47.68
27304;BME280;14791;52.392;13.092;2023-03-21T03:40:40;101210.09;;;13.95;47.53
27304;BME280;14791;52.392;13.092;2023-03-21T03:43:23;101208.88;;;13.94;47.58
27304;BME280;14791;52.392;13.092;2023-03-21T03:45:59;101201.99;;;13.90;47.67
27304;BME280;14791;52.392;13.092;2023-03-21T03:48:36;101208.92;;;13.87;47.70
27304;BME280;14791;52.392;13.092;2023-03-21T03:51:06;101205.84;;;13.86;47.77
27304;BME280;14791;52.392;13.092;2023-03-21T03:53:56;101203.64;;;13.85;47.81
27304;BME280;14791;52.392;13.092;2023-03-21T03:56:27;101204.23;;;13.83;47.89
27304;BME280;14791;52.392;13.092;2023-03-21T03:58:57;101203.16;;;13.86;47.95
27304;BME280;14791;52.392;13.092;2023-03-21T04:01:27;101198.19;;;13.87;47.99
27304;BME280;14791;52.392;13.092;2023-03-21T04:03:57;101201.99;;;13.90;47.99
27304;BME280;14791;52.392;13.092;2023-03-21T04:06:27;101200.83;;;13.94;47.96
27304;BME280;14791;52.392;13.092;2023-03-21T04:08:56;101202.53;;;13.95;47.94
27304;BME280;14791;52.392;13.092;2023-03-21T04:11:25;101204.14;;;13.97;47.90
27304;BME280;14791;52.392;13.092;2023-03-21T04:13:55;101207.69;;;13.98;47.95
27304;BME280;14791;52.392;13.092;2023-03-21T04:16:24;101201.46;;;13.97;47.98
27304;BME280;14791;52.392;13.092;2023-03-21T04:18:53;101200.97;;;13.98;47.98
27304;BME280;14791;52.392;13.092;2023-03-21T04:21:23;101203.08;;;14.00;48.00
27304;BME280;14791;52.392;13.092;2023-03-21T04:23:55;101198.69;;;13.99;48.00
27304;BME280;14791;52.392;13.092;2023-03-21T04:26:24;101208.45;;;14.00;48.07
27304;BME280;14791;52.392;13.092;2023-03-21T04:28:56;101203.08;;;14.00;48.21
27304;BME280;14791;52.392;13.092;2023-03-21T04:31:29;101199.27;;;13.97;48.29
27304;BME280;14791;52.392;13.092;2023-03-21T04:34:04;101202.53;;;13.95;48.37
27304;BME280;14791;52.392;13.092;2023-03-21T04:36:36;101200.44;;;13.93;48.36
27304;BME280;14791;52.392;13.092;2023-03-21T04:39:13;101191.62;;;13.91;48.39
27304;BME280;14791;52.392;13.092;2023-03-21T04:41:45;101195.38;;;13.88;48.48
27304;BME280;14791;52.392;13.092;2023-03-21T04:44:16;101193.77;;;13.86;48.60
27304;BME280;14791;52.392;13.092;2023-03-21T04:46:46;101196.08;;;13.85;48.68
27304;BME280;14791;52.392;13.092;2023-03-21T04:49:15;101193.61;;;13.81;48.72
27304;BME280;14791;52.392;13.092;2023-03-21T04:51:45;101195.32;;;13.82;48.83
27304;BME280;14791;52.392;13.092;2023-03-21T04:54:16;101193.98;;;13.82;48.85
27304;BME280;14791;52.392;13.092;2023-03-21T04:56:45;101196.08;;;13.85;48.84
27304;BME280;14791;52.392;13.092;2023-03-21T04:59:15;101192.42;;;13.86;48.85
27304;BME280;14791;52.392;13.092;2023-03-21T05:01:44;101196.72;;;13.88;48.88
27304;BME280;14791;52.392;13.092;2023-03-21T05:04:13;101193.94;;;13.90;48.89
27304;BME280;14791;52.392;13.092;2023-03-21T05:06:44;101192.02;;;13.92;48.89
27304;BME280;14791;52.392;13.092;2023-03-21T05:09:15;101198.50;;;13.95;48.94
27304;BME280;14791;52.392;13.092;2023-03-21T05:11:44;101192.55;;;13.97;48.96
27304;BME280;14791;52.392;13.092;2023-03-21T05:14:16;101199.53;;;13.99;48.94
27304;BME280;14791;52.392;13.092;2023-03-21T05:16:46;101194.92;;;14.01;48.96
27304;BME280;14791;52.392;13.092;2023-03-21T05:19:24;101195.19;;;14.04;48.99
27304;BME280;14791;52.392;13.092;2023-03-21T05:21:50;101190.67;;;14.04;49.01
27304;BME280;14791;52.392;13.092;2023-03-21T05:24:21;101190.58;;;14.06;49.05
27304;BME280;14791;52.392;13.092;2023-03-21T05:26:52;101187.18;;;14.10;49.01
27304;BME280;14791;52.392;13.092;2023-03-21T05:29:24;101192.82;;;14.12;49.02
27304;BME280;14791;52.392;13.092;2023-03-21T05:32:01;101192.23;;;14.14;48.98
27304;BME280;14791;52.392;13.092;2023-03-21T05:34:30;101192.02;;;14.17;48.96
27304;BME280;14791;52.392;13.092;2023-03-21T05:37:00;101191.83;;;14.20;49.00
27304;BME280;14791;52.392;13.092;2023-03-21T05:39:30;101194.66;;;14.24;48.97
27304;BME280;14791;52.392;13.092;2023-03-21T05:42:01;101194.46;;;14.28;48.97
27304;BME280;14791;52.392;13.092;2023-03-21T05:44:30;101196.92;;;14.31;48.93
27304;BME280;14791;52.392;13.092;2023-03-21T05:47:00;101194.02;;;14.34;48.83
27304;BME280;14791;52.392;13.092;2023-03-21T05:49:32;101194.28;;;14.36;48.81
27304;BME280;14791;52.392;13.092;2023-03-21T05:52:02;101194.67;;;14.37;48.86
27304;BME280;14791;52.392;13.092;2023-03-21T05:54:31;101190.42;;;14.40;48.89
27304;BME280;14791;52.392;13.092;2023-03-21T05:57:03;101195.20;;;14.42;48.88
27304;BME280;14791;52.392;13.092;2023-03-21T05:59:45;101201.60;;;14.47;48.92
27304;BME280;14791;52.392;13.092;2023-03-21T06:02:15;101200.75;;;14.46;48.97
27304;BME280;14791;52.392;13.092;2023-03-21T06:04:45;101201.97;;;14.48;48.96
27304;BME280;14791;52.392;13.092;2023-03-21T06:07:14;101196.27;;;14.53;48.99
27304;BME280;14791;52.392;13.092;2023-03-21T06:09:44;101200.00;;;14.57;48.94
27304;BME280;14791;52.392;13.092;2023-03-21T06:12:14;101204.20;;;14.61;48.95
27304;BME280;14791;52.392;13.092;2023-03-21T06:14:50;101205.45;;;14.63;49.00
27304;BME280;14791;52.392;13.092;2023-03-21T06:17:21;101207.64;;;14.63;48.86
27304;BME280;14791;52.392;13.092;2023-03-21T06:19:53;101214.56;;;14.60;48.83
27304;BME280;14791;52.392;13.092;2023-03-21T06:22:24;101213.45;;;14.57;48.75
27304;BME280;14791;52.392;13.092;2023-03-21T06:24:53;101211.91;;;14.53;48.80
27304;BME280;14791;52.392;13.092;2023-03-21T06:27:22;101218.09;;;14.48;49.03
27304;BME280;14791;52.392;13.092;2023-03-21T06:29:53;101210.61;;;14.46;49.29
27304;BME280;14791;52.392;13.092;2023-03-21T06:32:22;101210.74;;;14.44;49.38
27304;BME280;14791;52.392;13.092;2023-03-21T06:34:53;101212.19;;;14.43;49.46
27304;BME280;14791;52.392;13.092;2023-03-21T06:37:22;101210.08;;;14.41;49.58
27304;BME280;14791;52.392;13.092;2023-03-21T06:39:53;101209.72;;;14.40;49.56
27304;BME280;14791;52.392;13.092;2023-03-21T06:42:22;101216.66;;;14.37;49.62
27304;BME280;14791;52.392;13.092;2023-03-21T06:44:52;101211.48;;;14.34;49.75
27304;BME280;14791;52.392;13.092;2023-03-21T06:47:21;101210.27;;;14.32;49.88
27304;BME280;14791;52.392;13.092;2023-03-21T06:49:50;101210.14;;;14.34;49.95
27304;BME280;14791;52.392;13.092;2023-03-21T06:52:19;101211.48;;;14.34;50.07
27304;BME280;14791;52.392;13.092;2023-03-21T06:54:49;101211.75;;;14.36;50.13
27304;BME280;14791;52.392;13.092;2023-03-21T06:57:17;101206.64;;;14.39;50.13
27304;BME280;14791;52.392;13.092;2023-03-21T06:59:48;101210.08;;;14.41;50.25
27304;BME280;14791;52.392;13.092;2023-03-21T07:02:22;101209.40;;;14.44;50.34
27304;BME280;14791;52.392;13.092;2023-03-21T07:04:56;101214.06;;;14.48;50.36
27304;BME280;14791;52.392;13.092;2023-03-21T07:07:26;101212.52;;;14.51;50.32
27304;BME280;14791;52.392;13.092;2023-03-21T07:09:56;101215.02;;;14.54;50.29
27304;BME280;14791;52.392;13.092;2023-03-21T07:12:27;101210.39;;;14.56;50.33
27304;BME280;14791;52.392;13.092;2023-03-21T07:14:57;101211.52;;;14.59;50.32
27304;BME280;14791;52.392;13.092;2023-03-21T07:17:27;101211.28;;;14.62;50.42
27304;BME280;14791;52.392;13.092;2023-03-21T07:19:58;101209.35;;;14.64;50.47
27304;BME280;14791;52.392;13.092;2023-03-21T07:22:27;101213.16;;;14.67;50.54
27304;BME280;14791;52.392;13.092;2023-03-21T07:24:56;101211.62;;;14.71;50.63
27304;BME280;14791;52.392;13.092;2023-03-21T07:27:26;101213.48;;;14.76;50.66
27304;BME280;14791;52.392;13.092;2023-03-21T07:29:56;101214.77;;;14.83;50.65
27304;BME280;14791;52.392;13.092;2023-03-21T07:32:25;101215.88;;;14.86;50.54
27304;BME280;14791;52.392;13.092;2023-03-21T07:34:56;101216.99;;;14.89;50.46
27304;BME280;14791;52.392;13.092;2023-03-21T07:37:25;101212.38;;;14.91;50.50
27304;BME280;14791;52.392;13.092;2023-03-21T07:39:54;101213.52;;;14.94;50.51
27304;BME280;14791;52.392;13.092;2023-03-21T07:42:25;101221.35;;;14.97;50.57
27304;BME280;14791;52.392;13.092;2023-03-21T07:44:55;101217.34;;;15.03;50.60
27304;BME280;14791;52.392;13.092;2023-03-21T07:47:24;101221.05;;;15.07;50.59
27304;BME280;14791;52.392;13.092;2023-03-21T07:49:53;101213.98;;;15.12;50.49
27304;BME280;14791;52.392;13.092;2023-03-21T07:52:22;101216.94;;;15.15;50.37
27304;BME280;14791;52.392;13.092;2023-03-21T07:54:51;101212.31;;;15.17;50.30
27304;BME280;14791;52.392;13.092;2023-03-21T07:57:20;101216.60;;;15.19;50.36
27304;BME280;14791;52.392;13.092;2023-03-21T07:59:49;101215.52;;;15.22;50.46
27304;BME280;14791;52.392;13.092;2023-03-21T08:02:18;101210.39;;;15.24;50.48
27304;BME280;14791;52.392;13.092;2023-03-21T08:04:47;101206.02;;;15.29;50.48
27304;BME280;14791;52.392;13.092;2023-03-21T08:07:16;101206.92;;;15.35;50.34
27304;BME280;14791;52.392;13.092;2023-03-21T08:09:45;101204.84;;;15.39;50.26
27304;BME280;14791;52.392;13.092;2023-03-21T08:12:14;101205.36;;;15.44;50.32
27304;BME280;14791;52.392;13.092;2023-03-21T08:14:45;101209.45;;;15.49;50.32
27304;BME280;14791;52.392;13.092;2023-03-21T08:17:14;101208.61;;;15.55;50.32
27304;BME280;14791;52.392;13.092;2023-03-21T08:19:43;101206.31;;;15.61;50.20
27304;BME280;14791;52.392;13.092;2023-03-21T08:22:12;101206.34;;;15.67;50.16
27304;BME280;14791;52.392;13.092;2023-03-21T08:24:41;101206.52;;;15.71;50.12
27304;BME280;14791;52.392;13.092;2023-03-21T08:27:10;101209.32;;;15.75;50.04
27304;BME280;14791;52.392;13.092;2023-03-21T08:29:39;101207.27;;;15.79;50.04
27304;BME280;14791;52.392;13.092;2023-03-21T08:32:09;101209.62;;;15.83;50.03
27304;BME280;14791;52.392;13.092;2023-03-21T08:34:38;101209.73;;;15.87;49.97
27304;BME280;14791;52.392;13.092;2023-03-21T08:37:06;101212.56;;;15.91;49.86
27304;BME280;14791;52.392;13.092;2023-03-21T08:39:36;101207.92;;;15.93;49.75
27304;BME280;14791;52.392;13.092;2023-03-21T08:42:05;101211.72;;;15.97;49.82
27304;BME280;14791;52.392;13.092;2023-03-21T08:44:34;101213.81;;;15.99;49.93
27304;BME280;14791;52.392;13.092;2023-03-21T08:47:05;101211.62;;;16.04;49.95
27304;BME280;14791;52.392;13.092;2023-03-21T08:49:35;101215.80;;;16.08;49.89
27304;BME280;14791;52.392;13.092;2023-03-21T08:52:04;101211.05;;;16.11;49.86
27304;BME280;14791;52.392;13.092;2023-03-21T08:54:33;101214.24;;;16.16;49.86
27304;BME280;14791;52.392;13.092;2023-03-21T08:57:02;101212.55;;;16.21;49.93
27304;BME280;14791;52.392;13.092;2023-03-21T08:59:31;101213.78;;;16.28;49.86
27304;BME280;14791;52.392;13.092;2023-03-21T09:02:00;101210.09;;;16.35;49.81
27304;BME280;14791;52.392;13.092;2023-03-21T09:04:30;101207.42;;;16.41;49.65
27304;BME280;14791;52.392;13.092;2023-03-21T09:06:59;101203.87;;;16.46;49.58
27304;BME280;14791;52.392;13.092;2023-03-21T09:09:32;101207.05;;;16.51;49.51
27304;BME280;14791;52.392;13.092;2023-03-21T09:12:00;101209.50;;;16.54;49.48
27304;BME280;14791;52.392;13.092;2023-03-21T09:14:29;101203.74;;;16.58;49.49
27304;BME280;14791;52.392;13.092;2023-03-21T09:17:00;101202.41;;;16.64;49.49
27304;BME280;14791;52.392;13.092;2023-03-21T09:19:29;101205.95;;;16.70;49.46
27304;BME280;14791;52.392;13.092;2023-03-21T09:21:58;101214.92;;;16.76;49.17
27304;BME280;14791;52.392;13.092;2023-03-21T09:24:28;101208.94;;;16.78;49.08
27304;BME280;14791;52.392;13.092;2023-03-21T09:26:57;101212.73;;;16.82;48.94
27304;BME280;14791;52.392;13.092;2023-03-21T09:29:27;101212.23;;;16.82;48.77
27304;BME280;14791;52.392;13.092;2023-03-21T09:31:58;101216.78;;;16.82;48.64
27304;BME280;14791;52.392;13.092;2023-03-21T09:34:28;101219.23;;;16.79;48.58
27304;BME280;14791;52.392;13.092;2023-03-21T09:36:57;101216.02;;;16.74;48.55
27304;BME280;14791;52.392;13.092;2023-03-21T09:39:26;101215.65;;;16.67;48.60
27304;BME280;14791;52.392;13.092;2023-03-21T09:42:08;101211.86;;;16.64;48.81
27304;BME280;14791;52.392;13.092;2023-03-21T09:44:58;101209.52;;;16.65;48.98
27304;BME280;14791;52.392;13.092;2023-03-21T09:47:28;101210.25;;;16.67;49.16
27304;BME280;14791;52.392;13.092;2023-03-21T09:53:01;101205.83;;;16.77;48.94
27304;BME280;14791;52.392;13.092;2023-03-21T09:55:35;101208.03;;;16.78;48.90
27304;BME280;14791;52.392;13.092;2023-03-21T10:03:56;101207.82;;;16.87;48.73
27304;BME280;14791;52.392;13.092;2023-03-21T10:06:27;101196.79;;;16.84;48.67
27304;BME280;14791;52.392;13.092;2023-03-21T10:09:02;101192.98;;;16.87;48.54
27304;BME280;14791;52.392;13.092;2023-03-21T10:11:40;101192.87;;;16.88;48.49
27304;BME280;14791;52.392;13.092;2023-03-21T10:14:29;101187.83;;;16.89;48.54
27304;BME280;14791;52.392;13.092;2023-03-21T10:19:32;101186.00;;;16.95;48.63
27304;BME280;14791;52.392;13.092;2023-03-21T10:22:01;101186.09;;;16.99;48.68
27304;BME280;14791;52.392;13.092;2023-03-21T10:24:32;101184.25;;;17.06;48.69
27304;BME280;14791;52.392;13.092;2023-03-21T10:27:02;101186.70;;;17.14;48.63
27304;BME280;14791;52.392;13.092;2023-03-21T10:29:46;101182.98;;;17.21;48.50
27304;BME280;14791;52.392;13.092;2023-03-21T10:32:17;101177.08;;;17.27;48.34
27304;BME280;14791;52.392;13.092;2023-03-21T10:34:45;101173.63;;;17.31;48.21
27304;BME280;14791;52.392;13.092;2023-03-21T10:37:14;101172.50;;;17.33;48.10
27304;BME280;14791;52.392;13.092;2023-03-21T10:39:45;101168.72;;;17.36;48.13
27304;BME280;14791;52.392;13.092;2023-03-21T10:42:28;101169.54;;;17.42;48.09
27304;BME280;14791;52.392;13.092;2023-03-21T10:44:59;101167.80;;;17.47;48.10
27304;BME280;14791;52.392;13.092;2023-03-21T10:47:30;101174.80;;;17.49;48.14
27304;BME280;14791;52.392;13.092;2023-03-21T10:50:05;101165.19;;;17.56;48.06
27304;BME280;14791;52.392;13.092;2023-03-21T10:52:36;101160.62;;;17.62;48.06
27304;BME280;14791;52.392;13.092;2023-03-21T10:55:54;101157.77;;;17.70;48.05
27304;BME280;14791;52.392;13.092;2023-03-21T10:57:39;101159.58;;;17.80;47.96
27304;BME280;14791;52.392;13.092;2023-03-21T11:00:10;101162.84;;;17.90;47.98
27304;BME280;14791;52.392;13.092;2023-03-21T11:02:42;101155.87;;;18.02;47.96
27304;BME280;14791;52.392;13.092;2023-03-21T11:05:26;101159.23;;;18.16;47.92
27304;BME280;14791;52.392;13.092;2023-03-21T11:07:58;101153.83;;;18.31;47.80
27304;BME280;14791;52.392;13.092;2023-03-21T11:10:30;101154.98;;;18.44;47.70
27304;BME280;14791;52.392;13.092;2023-03-21T11:13:03;101150.55;;;18.58;47.45
27304;BME280;14791;52.392;13.092;2023-03-21T11:18:24;101152.44;;;18.83;46.97
27304;BME280;14791;52.392;13.092;2023-03-21T11:20:56;101144.69;;;18.94;46.75
27304;BME280;14791;52.392;13.092;2023-03-21T11:23:30;101140.94;;;19.00;46.65
27304;BME280;14791;52.392;13.092;2023-03-21T11:26:00;101137.61;;;19.12;46.51
27304;BME280;14791;52.392;13.092;2023-03-21T11:28:35;101136.98;;;19.24;46.41
27304;BME280;14791;52.392;13.092;2023-03-21T11:31:05;101130.30;;;19.38;46.25
27304;BME280;14791;52.392;13.092;2023-03-21T11:33:50;101124.03;;;19.47;46.09
27304;BME280;14791;52.392;13.092;2023-03-21T11:38:59;101117.88;;;19.64;45.70
27304;BME280;14791;52.392;13.092;2023-03-21T11:41:33;101112.91;;;19.69;45.45
27304;BME280;14791;52.392;13.092;2023-03-21T11:44:02;101118.03;;;19.72;45.21
27304;BME280;14791;52.392;13.092;2023-03-21T11:46:34;101114.34;;;19.73;45.05
27304;BME280;14791;52.392;13.092;2023-03-21T11:49:04;101107.19;;;19.72;45.02
27304;BME280;14791;52.392;13.092;2023-03-21T11:56:54;101102.14;;;19.73;44.89
27304;BME280;14791;52.392;13.092;2023-03-21T12:05:00;101102.78;;;19.71;45.05
27304;BME280;14791;52.392;13.092;2023-03-21T12:07:43;101096.72;;;19.73;45.09
27304;BME280;14791;52.392;13.092;2023-03-21T12:10:21;101095.06;;;19.76;44.85
27304;BME280;14791;52.392;13.092;2023-03-21T12:12:55;101096.77;;;19.78;44.80
27304;BME280;14791;52.392;13.092;2023-03-21T12:15:34;101090.70;;;19.80;44.84
27304;BME280;14791;52.392;13.092;2023-03-21T12:20:58;101082.64;;;19.84;44.54
27304;BME280;14791;52.392;13.092;2023-03-21T12:23:41;101076.20;;;19.85;44.66
27304;BME280;14791;52.392;13.092;2023-03-21T12:26:18;101073.87;;;19.86;44.88
27304;BME280;14791;52.392;13.092;2023-03-21T12:39:33;101067.25;;;19.74;44.05
27304;BME280;14791;52.392;13.092;2023-03-21T12:42:08;101056.27;;;19.66;44.19
27304;BME280;14791;52.392;13.092;2023-03-21T12:44:42;101060.13;;;19.64;44.28
27304;BME280;14791;52.392;13.092;2023-03-21T12:47:14;101061.62;;;19.62;44.29
27304;BME280;14791;52.392;13.092;2023-03-21T12:50:31;101060.91;;;19.60;44.31
27304;BME280;14791;52.392;13.092;2023-03-21T12:52:24;101058.70;;;19.60;44.23
27304;BME280;14791;52.392;13.092;2023-03-21T12:55:15;101058.13;;;19.56;44.21
27304;BME280;14791;52.392;13.092;2023-03-21T12:57:49;101055.71;;;19.53;44.20
27304;BME280;14791;52.392;13.092;2023-03-21T13:00:27;101045.95;;;19.46;44.19
27304;BME280;14791;52.392;13.092;2023-03-21T13:03:02;101045.70;;;19.40;44.13
27304;BME280;14791;52.392;13.092;2023-03-21T13:05:34;101038.77;;;19.31;44.25
27304;BME280;14791;52.392;13.092;2023-03-21T13:08:14;101038.35;;;19.26;44.38
27304;BME280;14791;52.392;13.092;2023-03-21T13:10:43;101039.84;;;19.25;44.44
27304;BME280;14791;52.392;13.092;2023-03-21T13:24:03;101019.70;;;19.23;44.63
27304;BME280;14791;52.392;13.092;2023-03-21T13:26:40;101013.23;;;19.20;44.71
27304;BME280;14791;52.392;13.092;2023-03-21T13:29:25;101011.88;;;19.20;44.70
27304;BME280;14791;52.392;13.092;2023-03-21T13:31:57;101014.58;;;19.20;44.75
27304;BME280;14791;52.392;13.092;2023-03-21T13:34:25;101013.23;;;19.20;44.78
27304;BME280;14791;52.392;13.092;2023-03-21T13:36:55;101014.20;;;19.19;44.69
27304;BME280;14791;52.392;13.092;2023-03-21T13:39:26;101010.65;;;19.19;44.78
27304;BME280;14791;52.392;13.092;2023-03-21T13:42:02;101009.80;;;19.18;44.88
27304;BME280;14791;52.392;13.092;2023-03-21T13:44:40;101008.08;;;19.17;45.16
27304;BME280;14791;52.392;13.092;2023-03-21T13:55:46;100992.47;;;19.15;45.44
27304;BME280;14791;52.392;13.092;2023-03-21T13:58:30;100991.91;;;19.21;45.50
27304;BME280;14791;52.392;13.092;2023-03-21T14:03:44;100988.82;;;19.40;45.20
27304;BME280;14791;52.392;13.092;2023-03-21T14:06:15;100985.00;;;19.46;45.08
27304;BME280;14791;52.392;13.092;2023-03-21T14:08:46;100979.21;;;19.55;45.05
27304;BME280;14791;52.392;13.092;2023-03-21T14:11:18;100981.39;;;19.65;44.85
27304;BME280;14791;52.392;13.092;2023-03-21T14:13:47;100979.18;;;19.74;44.72
27304;BME280;14791;52.392;13.092;2023-03-21T14:16:18;100982.49;;;19.82;44.62
27304;BME280;14791;52.392;13.092;2023-03-21T14:18:59;100977.70;;;19.90;44.49
27304;BME280;14791;52.392;13.092;2023-03-21T14:21:29;100976.05;;;19.93;44.28
27304;BME280;14791;52.392;13.092;2023-03-21T14:24:10;100978.76;;;19.93;44.14